Time;durP1;ratioP1;P1;durP2;ratioP2;P2;SDS_P1;SDS_P2;PMS_P1;PMS_P2;Temp;Humidity;BMP_temperature;BMP_pressure;BME280_temperature;BME280_humidity;BME280_pressure;Samples;Min_cycle;Max_cycle;Signal;HPM_P1;HPM_P2
2022/11/23 00:01:27;;;;;;;38.20;18.13;;;8.50;99.90;;;;;;4865329;29;37767;-77
2022/11/23 00:03:56;;;;;;;42.37;19.60;;;8.50;99.90;;;;;;4854541;29;37974;-77
2022/11/23 00:06:24;;;;;;;37.03;19.43;;;8.50;99.90;;;;;;4867357;29;39533;-78
2022/11/23 00:08:51;;;;;;;38.80;19.73;;;8.50;99.90;;;;;;4866731;29;36869;-77
2022/11/23 00:11:19;;;;;;;34.67;18.17;;;8.70;99.90;;;;;;4863638;29;37377;-78
2022/11/23 00:13:46;;;;;;;41.70;21.07;;;8.70;99.90;;;;;;4870087;29;39954;-78
2022/11/23 00:16:15;;;;;;;43.80;19.87;;;8.70;99.90;;;;;;4866789;29;40390;-78
2022/11/23 00:18:41;;;;;;;36.07;20.03;;;8.70;99.90;;;;;;4867821;29;38399;-77
2022/11/23 00:21:09;;;;;;;46.43;22.37;;;8.70;99.90;;;;;;4865923;29;36068;-76
2022/11/23 00:23:36;;;;;;;37.40;18.23;;;8.70;99.90;;;;;;4853729;29;37308;-77
2022/11/23 00:26:02;;;;;;;39.20;20.67;;;8.70;99.90;;;;;;4869164;29;37396;-76
2022/11/23 00:28:29;;;;;;;38.93;20.93;;;8.70;99.90;;;;;;4873033;29;37419;-77
2022/11/23 00:30:55;;;;;;;35.63;18.37;;;8.70;99.90;;;;;;4871559;29;37629;-76
2022/11/23 00:33:22;;;;;;;39.87;18.73;;;8.70;99.90;;;;;;4868726;29;39218;-77
2022/11/23 00:36:00;;;;;;;32.87;16.73;;;8.70;99.90;;;;;;4849237;29;37182;-77
2022/11/23 00:38:27;;;;;;;30.43;16.03;;;8.70;99.90;;;;;;4846952;29;38043;-77
2022/11/23 00:40:58;;;;;;;34.87;16.13;;;8.70;99.90;;;;;;4868020;29;38768;-76
2022/11/23 00:43:25;;;;;;;29.20;15.47;;;8.70;99.90;;;;;;4871319;29;39499;-77
2022/11/23 00:46:02;;;;;;;29.17;14.97;;;8.70;99.90;;;;;;4851353;29;38213;-77
2022/11/23 00:48:28;;;;;;;31.60;15.70;;;8.70;99.90;;;;;;4849634;29;37613;-76
2022/11/23 00:50:54;;;;;;;31.80;15.80;;;8.70;99.90;;;;;;4861010;29;37010;-74
2022/11/23 00:53:20;;;;;;;40.97;16.20;;;8.60;99.90;;;;;;4862814;29;38405;-76
2022/11/23 00:55:54;;;;;;;36.73;14.83;;;8.70;99.90;;;;;;4865069;29;38455;-76
2022/11/23 00:58:21;;;;;;;35.23;15.77;;;8.60;99.90;;;;;;4863123;29;36991;-78
2022/11/23 01:00:47;;;;;;;28.97;14.97;;;8.60;99.90;;;;;;4857854;29;37673;-77
2022/11/23 01:03:15;;;;;;;25.87;13.03;;;8.60;99.90;;;;;;4848149;29;39037;-77
2022/11/23 01:05:41;;;;;;;34.83;15.10;;;8.60;99.90;;;;;;4864131;29;39235;-77
2022/11/23 01:08:07;;;;;;;32.10;15.20;;;8.50;99.90;;;;;;4864909;29;36568;-78
2022/11/23 01:10:33;;;;;;;33.50;13.90;;;8.50;99.90;;;;;;4844089;29;36129;-76
2022/11/23 01:13:00;;;;;;;29.57;14.50;;;8.50;99.90;;;;;;4862247;29;39004;-77
2022/11/23 01:15:26;;;;;;;32.00;14.27;;;8.50;99.90;;;;;;4864162;29;38588;-76
2022/11/23 01:17:52;;;;;;;29.80;14.03;;;8.50;99.90;;;;;;4859981;29;38351;-78
2022/11/23 01:20:18;;;;;;;27.07;13.27;;;8.50;99.90;;;;;;4862977;29;37467;-77
2022/11/23 01:22:44;;;;;;;27.63;13.03;;;8.50;99.90;;;;;;4861855;29;37873;-77
2022/11/23 01:25:10;;;;;;;26.43;12.60;;;8.40;99.90;;;;;;4861931;29;38027;-77
2022/11/23 01:27:36;;;;;;;34.47;13.10;;;8.40;99.90;;;;;;4857754;29;38301;-77
2022/11/23 01:30:03;;;;;;;27.73;12.17;;;8.40;99.90;;;;;;4865262;29;37367;-76
2022/11/23 01:32:29;;;;;;;26.73;10.40;;;8.40;99.90;;;;;;4863604;29;47598;-77
2022/11/23 01:34:55;;;;;;;28.70;12.47;;;8.40;99.90;;;;;;4869633;29;38499;-77
2022/11/23 01:37:21;;;;;;;23.13;10.60;;;8.40;99.90;;;;;;4863571;29;38218;-77
2022/11/23 01:39:47;;;;;;;25.03;11.13;;;8.30;99.90;;;;;;4862578;29;39035;-77
2022/11/23 01:42:13;;;;;;;27.60;10.27;;;8.20;99.90;;;;;;4852867;29;39040;-77
2022/11/23 01:44:42;;;;;;;26.70;10.13;;;8.20;99.90;;;;;;4874143;29;38633;-77
2022/11/23 01:47:09;;;;;;;30.47;10.60;;;8.10;99.90;;;;;;4868489;29;36835;-77
2022/11/23 01:49:42;;;;;;;20.07;9.70;;;8.00;99.90;;;;;;4873331;29;36136;-77
2022/11/23 01:52:16;;;;;;;25.60;10.47;;;8.00;99.90;;;;;;4849571;29;38234;-77
2022/11/23 01:55:08;;;;;;;23.80;10.80;;;7.90;99.90;;;;;;4864476;29;38494;-78
2022/11/23 01:57:40;;;;;;;25.57;11.07;;;7.90;99.90;;;;;;4846638;29;46489;-76
2022/11/23 02:00:07;;;;;;;23.75;10.43;;;7.90;99.90;;;;;;4864673;29;36859;-77
2022/11/23 02:02:35;;;;;;;23.80;10.97;;;7.90;99.90;;;;;;5359230;23;38525;-77
2022/11/23 02:05:01;;;;;;;30.97;11.33;;;7.90;99.90;;;;;;4874809;29;38795;-75
2022/11/23 02:07:32;;;;;;;23.60;10.83;;;7.90;99.90;;;;;;4878121;29;37276;-76
2022/11/23 02:09:58;;;;;;;35.67;13.87;;;8.00;99.90;;;;;;4883038;29;37360;-76
2022/11/23 02:12:24;;;;;;;26.43;12.73;;;8.00;99.90;;;;;;4886307;29;39878;-78
2022/11/23 02:14:50;;;;;;;23.47;13.00;;;8.00;99.90;;;;;;4886360;29;38663;-77
2022/11/23 02:17:18;;;;;;;19.87;13.43;;;7.90;99.90;;;;;;4869165;29;37183;-76
2022/11/23 02:20:09;;;;;;;28.60;12.40;;;8.00;99.90;;;;;;4885836;29;38054;-77
2022/11/23 02:22:48;;;;;;;28.00;14.17;;;7.90;99.90;;;;;;4878664;29;48645;-77
2022/11/23 02:25:39;;;;;;;30.07;14.23;;;7.90;99.90;;;;;;4888001;29;38042;-76
2022/11/23 02:28:06;;;;;;;25.53;15.03;;;7.90;99.90;;;;;;4886093;29;38117;-76
2022/11/23 02:30:35;;;;;;;27.00;15.17;;;8.00;99.90;;;;;;4888445;29;37716;-77
2022/11/23 02:33:04;;;;;;;25.43;15.87;;;8.00;99.90;;;;;;4889131;29;38026;-76
2022/11/23 02:35:31;;;;;;;27.77;16.30;;;8.00;99.90;;;;;;4887555;29;47163;-76
2022/11/23 02:38:01;;;;;;;24.63;15.33;;;8.10;99.90;;;;;;4884421;29;38246;-77
2022/11/23 02:40:33;;;;;;;29.83;16.73;;;8.10;99.90;;;;;;4885294;29;37424;-76
2022/11/23 02:43:00;;;;;;;24.67;16.80;;;8.20;99.90;;;;;;4889805;29;39426;-77
2022/11/23 02:45:43;;;;;;;23.30;16.83;;;8.20;99.90;;;;;;4868396;29;37351;-76
2022/11/23 02:48:09;;;;;;;27.27;18.13;;;8.30;99.90;;;;;;4891325;29;38078;-76
2022/11/23 02:50:35;;;;;;;30.87;18.70;;;8.40;99.90;;;;;;4882445;29;37491;-77
2022/11/23 02:53:01;;;;;;;30.00;17.93;;;8.40;99.90;;;;;;4869054;29;37739;-77
2022/11/23 02:55:31;;;;;;;25.03;18.07;;;8.50;99.90;;;;;;4883309;29;47404;-76
2022/11/23 02:57:57;;;;;;;32.83;18.80;;;8.50;99.90;;;;;;4880628;29;37087;-76
2022/11/23 03:00:23;;;;;;;28.10;18.90;;;8.50;99.90;;;;;;4882647;29;38136;-76
2022/11/23 03:02:49;;;;;;;28.60;18.70;;;8.50;99.90;;;;;;4872454;29;39035;-76
2022/11/23 03:05:15;;;;;;;31.87;18.73;;;8.60;99.90;;;;;;4888024;29;38644;-74
2022/11/23 03:07:41;;;;;;;28.07;17.97;;;8.60;99.90;;;;;;4871607;29;37298;-76
2022/11/23 03:10:08;;;;;;;26.23;16.70;;;8.60;99.90;;;;;;4887839;29;37335;-77
2022/11/23 03:12:34;;;;;;;23.77;16.03;;;8.60;99.90;;;;;;4883869;29;38025;-77
2022/11/23 03:15:00;;;;;;;21.67;15.37;;;8.60;99.90;;;;;;4890296;29;39469;-76
2022/11/23 03:17:27;;;;;;;23.60;14.67;;;8.70;99.90;;;;;;4869508;29;37288;-76
2022/11/23 03:19:53;;;;;;;20.03;14.00;;;8.70;99.90;;;;;;4884821;29;38660;-77
2022/11/23 03:22:19;;;;;;;19.93;13.50;;;8.70;99.90;;;;;;4888343;29;39581;-76
2022/11/23 03:24:45;;;;;;;20.80;12.60;;;8.70;99.90;;;;;;4887684;29;38050;-76
2022/11/23 03:27:11;;;;;;;16.57;11.53;;;8.70;99.90;;;;;;4887390;29;40081;-77
2022/11/23 03:29:37;;;;;;;18.53;10.57;;;8.70;99.90;;;;;;4873621;29;36310;-77
2022/11/23 03:32:04;;;;;;;15.67;9.97;;;8.70;99.90;;;;;;4887627;29;37331;-75
2022/11/23 03:34:30;;;;;;;16.40;10.20;;;8.80;99.90;;;;;;4885377;29;38102;-76
2022/11/23 03:36:56;;;;;;;16.43;10.70;;;8.80;99.90;;;;;;4873331;29;37140;-77
2022/11/23 03:39:22;;;;;;;15.47;9.67;;;8.80;99.90;;;;;;4887925;29;37005;-75
2022/11/23 03:41:48;;;;;;;14.40;9.80;;;8.80;99.90;;;;;;4886851;29;39501;-76
2022/11/23 03:44:14;;;;;;;16.57;9.30;;;8.80;99.90;;;;;;4887745;29;38099;-76
2022/11/23 03:46:40;;;;;;;19.67;9.10;;;8.80;99.90;;;;;;4887210;29;37967;-76
2022/11/23 03:49:06;;;;;;;19.93;9.27;;;8.90;99.90;;;;;;4885393;29;37145;-77
2022/11/23 03:51:32;;;;;;;21.43;9.40;;;8.90;99.90;;;;;;4884422;29;39349;-76
2022/11/23 03:53:58;;;;;;;19.03;8.80;;;8.90;99.90;;;;;;4886934;29;38025;-76
2022/11/23 03:56:24;;;;;;;16.80;8.90;;;8.90;99.90;;;;;;4888599;29;37894;-77
2022/11/23 03:58:50;;;;;;;17.23;8.50;;;8.90;99.90;;;;;;4886675;29;38600;-77
2022/11/23 04:01:16;;;;;;;18.00;8.87;;;8.90;99.90;;;;;;4889155;29;38924;-76
2022/11/23 04:03:42;;;;;;;18.43;9.87;;;9.00;99.90;;;;;;4870932;29;37746;-76
2022/11/23 04:06:09;;;;;;;16.87;9.57;;;9.00;99.90;;;;;;4886258;29;37653;-75
2022/11/23 04:08:35;;;;;;;16.03;7.80;;;9.00;99.90;;;;;;4888439;29;37348;-79
2022/11/23 04:11:01;;;;;;;16.63;7.63;;;8.90;99.90;;;;;;4888145;29;39920;-78
2022/11/23 04:13:29;;;;;;;25.03;9.50;;;8.90;99.90;;;;;;4890542;29;38096;-76
2022/11/23 04:15:56;;;;;;;22.07;8.60;;;8.80;99.90;;;;;;4870194;29;36396;-75
2022/11/23 04:18:22;;;;;;;21.20;8.60;;;8.70;99.90;;;;;;4888982;29;36928;-77
2022/11/23 04:20:48;;;;;;;24.90;7.70;;;8.70;99.90;;;;;;4871032;29;37874;-76
2022/11/23 04:23:14;;;;;;;18.57;7.90;;;8.70;99.90;;;;;;4871729;29;38885;-77
2022/11/23 04:25:40;;;;;;;16.27;6.27;;;8.70;99.90;;;;;;4871286;29;36870;-75
2022/11/23 04:28:06;;;;;;;16.77;7.43;;;8.70;99.90;;;;;;4890080;29;37516;-76
2022/11/23 04:30:32;;;;;;;17.37;6.87;;;8.80;99.90;;;;;;4888515;29;37680;-76
2022/11/23 04:32:58;;;;;;;20.80;6.67;;;8.80;99.90;;;;;;4887734;29;39842;-76
2022/11/23 04:35:24;;;;;;;19.27;6.23;;;8.80;99.90;;;;;;4891329;29;37651;-77
2022/11/23 04:37:50;;;;;;;17.80;5.77;;;8.80;99.90;;;;;;4874804;29;37904;-76
2022/11/23 04:40:16;;;;;;;23.97;6.17;;;8.80;99.90;;;;;;4889306;29;38607;-76
2022/11/23 04:42:43;;;;;;;16.57;6.20;;;8.80;99.90;;;;;;4872480;29;36762;-76
2022/11/23 04:45:10;;;;;;;14.33;5.43;;;8.70;99.90;;;;;;4890723;29;39088;-76
2022/11/23 04:47:36;;;;;;;20.10;5.73;;;8.60;99.90;;;;;;4888858;29;36049;-76
2022/11/23 04:50:02;;;;;;;14.10;5.93;;;8.50;99.90;;;;;;4872412;29;37824;-77
2022/11/23 04:52:28;;;;;;;19.50;5.37;;;8.50;99.90;;;;;;4888492;29;38460;-75
2022/11/23 04:54:54;;;;;;;15.17;5.57;;;8.40;99.90;;;;;;4888531;29;37812;-78
2022/11/23 04:57:20;;;;;;;22.43;6.03;;;8.40;99.90;;;;;;4890504;29;37205;-76
2022/11/23 04:59:46;;;;;;;19.43;6.50;;;8.30;99.90;;;;;;4888742;29;38714;-76
2022/11/23 05:02:13;;;;;;;18.77;8.00;;;8.30;99.90;;;;;;4889550;29;38489;-77
2022/11/23 05:04:39;;;;;;;20.63;8.90;;;8.20;99.90;;;;;;4889298;29;37851;-77
2022/11/23 05:07:05;;;;;;;25.57;8.60;;;8.20;99.90;;;;;;4874017;29;36553;-77
2022/11/23 05:09:31;;;;;;;20.37;9.87;;;8.30;99.90;;;;;;4874366;29;37995;-77
2022/11/23 05:11:58;;;;;;;17.27;8.93;;;8.20;99.90;;;;;;4890833;29;38884;-76
2022/11/23 05:14:24;;;;;;;18.17;8.53;;;8.30;99.90;;;;;;4874539;29;37521;-77
2022/11/23 05:16:50;;;;;;;17.50;7.83;;;8.30;99.90;;;;;;4878808;29;36275;-77
2022/11/23 05:19:16;;;;;;;21.50;8.47;;;8.30;99.90;;;;;;4895657;29;39248;-76
2022/11/23 05:21:42;;;;;;;20.83;8.53;;;8.20;99.90;;;;;;4895267;29;38835;-79
2022/11/23 05:24:08;;;;;;;20.67;8.30;;;8.20;99.90;;;;;;4896491;29;37292;-77
2022/11/23 05:26:34;;;;;;;28.43;8.67;;;8.20;99.90;;;;;;4892343;29;38732;-78
2022/11/23 05:29:00;;;;;;;26.07;9.43;;;8.10;99.90;;;;;;4893444;29;38944;-78
2022/11/23 05:31:26;;;;;;;25.80;8.87;;;8.10;99.90;;;;;;4892192;29;39739;-79
2022/11/23 05:33:52;;;;;;;33.43;10.23;;;8.10;99.90;;;;;;4894934;29;39621;-78
2022/11/23 05:36:18;;;;;;;22.63;7.77;;;8.00;99.90;;;;;;4891643;29;35957;-77
2022/11/23 05:38:44;;;;;;;20.27;6.50;;;8.00;99.90;;;;;;4895042;29;37176;-78
2022/11/23 05:41:10;;;;;;;21.57;5.53;;;8.00;99.90;;;;;;4893629;29;38498;-79
2022/11/23 05:43:36;;;;;;;23.90;5.80;;;8.00;99.90;;;;;;4894009;29;38919;-78
2022/11/23 05:46:03;;;;;;;22.13;4.40;;;8.00;99.90;;;;;;4892768;29;37976;-76
2022/11/23 05:48:29;;;;;;;15.40;3.47;;;8.00;99.90;;;;;;4892765;29;39021;-75
2022/11/23 05:50:55;;;;;;;19.33;3.80;;;8.00;99.90;;;;;;4894160;29;39199;-77
2022/11/23 05:53:21;;;;;;;19.73;5.03;;;8.00;99.90;;;;;;4894497;29;38040;-78
2022/11/23 05:55:47;;;;;;;24.30;5.17;;;8.00;99.90;;;;;;4892695;29;36984;-77
2022/11/23 05:58:13;;;;;;;24.80;3.13;;;8.10;99.90;;;;;;4897528;29;38183;-75
2022/11/23 06:00:39;;;;;;;26.83;3.67;;;8.10;99.90;;;;;;4895335;29;38177;-76
2022/11/23 06:03:05;;;;;;;16.03;2.90;;;8.10;99.90;;;;;;4893800;29;39295;-75
2022/11/23 06:05:32;;;;;;;17.17;3.50;;;8.10;99.90;;;;;;4891043;29;37257;-77
2022/11/23 06:07:58;;;;;;;29.87;5.63;;;8.10;99.90;;;;;;4892075;29;39395;-76
2022/11/23 06:10:24;;;;;;;19.77;3.63;;;8.10;99.90;;;;;;4895284;29;38417;-76
2022/11/23 06:12:51;;;;;;;20.47;3.80;;;8.10;99.90;;;;;;4887124;29;38235;-76
2022/11/23 06:15:18;;;;;;;23.53;3.17;;;8.10;99.90;;;;;;4886107;29;38315;-75
2022/11/23 06:17:44;;;;;;;15.60;3.53;;;8.10;99.90;;;;;;4879213;29;39751;-76
2022/11/23 06:20:10;;;;;;;21.07;2.60;;;8.10;99.90;;;;;;4890291;29;37342;-77
2022/11/23 06:22:36;;;;;;;18.77;3.17;;;8.10;99.90;;;;;;4893093;29;40500;-75
2022/11/23 06:25:02;;;;;;;25.43;3.63;;;8.10;99.90;;;;;;4886062;29;37155;-76
2022/11/23 06:27:28;;;;;;;20.90;2.97;;;8.20;99.90;;;;;;4886836;29;38201;-76
2022/11/23 06:29:54;;;;;;;18.33;3.60;;;8.20;99.90;;;;;;4885397;29;38441;-77
2022/11/23 06:32:20;;;;;;;20.57;3.67;;;8.20;99.90;;;;;;4886752;29;38543;-76
2022/11/23 06:34:46;;;;;;;18.60;3.23;;;8.20;99.90;;;;;;4891726;29;36966;-76
2022/11/23 06:37:13;;;;;;;17.73;3.00;;;8.30;99.90;;;;;;4869358;29;37661;-77
2022/11/23 06:39:39;;;;;;;16.07;3.47;;;8.30;99.90;;;;;;4891263;29;38630;-76
2022/11/23 06:42:05;;;;;;;15.47;2.57;;;8.30;99.90;;;;;;4888673;29;37982;-77
2022/11/23 06:44:31;;;;;;;21.67;4.00;;;8.30;99.90;;;;;;4893512;29;34987;-76
2022/11/23 06:46:57;;;;;;;17.80;3.20;;;8.30;99.90;;;;;;4888762;29;38780;-76
2022/11/23 06:49:25;;;;;;;22.27;3.30;;;8.30;99.90;;;;;;4874306;29;38425;-77
2022/11/23 06:51:51;;;;;;;14.63;3.07;;;8.40;99.90;;;;;;4889937;29;39105;-77
2022/11/23 06:54:17;;;;;;;19.40;3.23;;;8.40;99.90;;;;;;4891658;29;37157;-76
2022/11/23 06:56:43;;;;;;;17.97;3.10;;;8.40;99.90;;;;;;4895740;29;39064;-78
2022/11/23 06:59:09;;;;;;;13.53;2.67;;;8.40;99.90;;;;;;4887155;29;39088;-76
2022/11/23 07:01:35;;;;;;;21.20;3.17;;;8.50;99.90;;;;;;4893899;29;39320;-77
2022/11/23 07:04:01;;;;;;;22.80;3.43;;;8.50;99.90;;;;;;4895083;29;35982;-77
2022/11/23 07:06:27;;;;;;;18.03;2.77;;;8.50;99.90;;;;;;4891439;29;46663;-78
2022/11/23 07:08:54;;;;;;;20.10;3.70;;;8.50;99.90;;;;;;4894692;29;37833;-76
2022/11/23 07:11:20;;;;;;;21.43;4.20;;;8.40;99.90;;;;;;4894035;29;39515;-77
2022/11/23 07:13:46;;;;;;;17.80;2.87;;;8.50;99.90;;;;;;4892996;29;37050;-77
2022/11/23 07:16:13;;;;;;;18.97;2.93;;;8.50;99.90;;;;;;4893793;29;40359;-77
2022/11/23 07:18:39;;;;;;;17.33;3.03;;;8.50;99.90;;;;;;4892695;29;38332;-78
2022/11/23 07:21:06;;;;;;;23.10;3.70;;;8.40;99.90;;;;;;4890631;29;36880;-78
2022/11/23 07:23:32;;;;;;;18.93;3.10;;;8.50;99.90;;;;;;4892031;29;35702;-77
2022/11/23 07:25:58;;;;;;;18.63;3.10;;;8.50;99.90;;;;;;4893356;29;37758;-77
2022/11/23 07:28:24;;;;;;;21.27;2.97;;;8.50;99.90;;;;;;4890491;29;37090;-76
2022/11/23 07:30:51;;;;;;;28.23;3.33;;;8.50;99.90;;;;;;4876030;29;37487;-78
2022/11/23 07:33:17;;;;;;;16.27;2.87;;;8.50;99.90;;;;;;4882215;29;37106;-77
2022/11/23 07:35:43;;;;;;;17.80;3.37;;;8.60;99.90;;;;;;4889281;29;38065;-78
2022/11/23 07:38:09;;;;;;;21.23;4.10;;;8.50;99.90;;;;;;4887092;29;37934;-78
2022/11/23 07:40:36;;;;;;;12.47;2.77;;;8.50;99.90;;;;;;4891761;29;38346;-78
2022/11/23 07:43:03;;;;;;;23.37;4.17;;;8.40;99.90;;;;;;4894703;29;37391;-76
2022/11/23 07:45:30;;;;;;;20.23;3.03;;;8.30;99.90;;;;;;4891373;29;48783;-79
2022/11/23 07:48:07;;;;;;;20.40;3.30;;;8.30;99.90;;;;;;4891196;29;37977;-77
2022/11/23 07:50:35;;;;;;;18.50;3.60;;;8.30;99.90;;;;;;4865102;29;47611;-76
2022/11/23 07:53:02;;;;;;;20.97;3.13;;;8.30;99.90;;;;;;4891847;29;37094;-77
2022/11/23 07:55:30;;;;;;;15.30;3.20;;;8.30;99.90;;;;;;4871982;29;47036;-77
2022/11/23 07:57:57;;;;;;;22.10;2.80;;;8.30;99.90;;;;;;4894789;29;37424;-78
2022/11/23 08:00:25;;;;;;;24.93;3.77;;;8.30;99.90;;;;;;4893842;29;39926;-76
2022/11/23 08:02:51;;;;;;;23.30;3.43;;;8.30;99.90;;;;;;4893158;29;37050;-77
2022/11/23 08:05:18;;;;;;;12.97;2.73;;;8.40;99.90;;;;;;4893886;29;39117;-77
2022/11/23 08:07:45;;;;;;;19.60;4.30;;;8.40;99.90;;;;;;4897224;29;20082;-77
2022/11/23 08:10:12;;;;;;;19.23;2.70;;;8.40;99.90;;;;;;4892996;29;38129;-77
2022/11/23 08:12:38;;;;;;;18.30;2.97;;;8.50;99.90;;;;;;4879260;29;37048;-77
2022/11/23 08:15:05;;;;;;;25.63;3.50;;;8.50;99.90;;;;;;4891682;29;38978;-77
2022/11/23 08:17:32;;;;;;;27.50;3.97;;;8.50;99.90;;;;;;4892452;29;39371;-77
2022/11/23 08:19:58;;;;;;;19.60;3.00;;;8.60;99.90;;;;;;4877573;29;36775;-77
2022/11/23 08:22:25;;;;;;;17.20;2.93;;;8.60;99.90;;;;;;4885007;29;38465;-75
2022/11/23 08:24:52;;;;;;;15.40;3.00;;;8.60;99.90;;;;;;4892150;29;39150;-77
2022/11/23 08:27:18;;;;;;;17.77;3.70;;;8.60;99.90;;;;;;4893488;29;38710;-76
2022/11/23 08:29:44;;;;;;;23.23;3.40;;;8.60;99.90;;;;;;4885035;29;37543;-75
2022/11/23 08:32:11;;;;;;;26.03;4.13;;;8.70;99.90;;;;;;4897715;29;37200;-76
2022/11/23 08:34:37;;;;;;;15.33;3.13;;;8.70;99.90;;;;;;4892449;29;37952;-77
2022/11/23 08:37:03;;;;;;;19.53;3.30;;;8.70;99.90;;;;;;4892103;29;40003;-77
2022/11/23 08:39:29;;;;;;;17.97;2.97;;;8.80;99.90;;;;;;4892618;29;37935;-77
2022/11/23 08:41:58;;;;;;;13.93;2.93;;;8.80;99.90;;;;;;4894621;29;36924;-78
2022/11/23 08:44:24;;;;;;;16.30;2.60;;;8.90;99.90;;;;;;4893943;29;38675;-77
2022/11/23 08:46:50;;;;;;;17.73;3.17;;;8.90;99.90;;;;;;4873529;29;37338;-76
2022/11/23 08:49:16;;;;;;;15.80;3.20;;;9.00;99.90;;;;;;4895636;29;36995;-77
2022/11/23 08:51:42;;;;;;;19.10;2.87;;;8.80;99.90;;;;;;4892636;29;36901;-77
2022/11/23 08:54:08;;;;;;;24.03;4.20;;;8.80;99.90;;;;;;4891907;29;39032;-76
2022/11/23 08:56:35;;;;;;;17.40;2.83;;;8.80;99.90;;;;;;4876207;29;37427;-77
2022/11/23 08:59:01;;;;;;;19.97;3.87;;;8.80;99.90;;;;;;4893712;29;39156;-77
2022/11/23 09:01:27;;;;;;;22.57;3.73;;;8.70;99.90;;;;;;4893745;29;38316;-77
2022/11/23 09:03:53;;;;;;;21.47;3.73;;;8.70;99.90;;;;;;4869414;29;37552;-77
2022/11/23 09:06:19;;;;;;;15.23;2.90;;;8.70;99.90;;;;;;4873781;29;39372;-77
2022/11/23 09:08:45;;;;;;;21.60;3.67;;;8.70;99.90;;;;;;4874400;29;37900;-77
2022/11/23 09:11:13;;;;;;;14.87;2.97;;;8.60;99.90;;;;;;4872464;29;38518;-78
2022/11/23 09:13:39;;;;;;;18.17;4.00;;;8.60;99.90;;;;;;4872177;29;37876;-75
2022/11/23 09:16:06;;;;;;;15.37;3.90;;;8.60;99.90;;;;;;4873474;29;38567;-76
2022/11/23 09:18:34;;;;;;;19.33;3.40;;;8.50;99.90;;;;;;4888228;29;37115;-77
2022/11/23 09:21:03;;;;;;;24.83;3.40;;;8.50;99.90;;;;;;4869437;29;37346;-77
2022/11/23 09:23:29;;;;;;;18.20;3.93;;;8.50;99.90;;;;;;4887606;29;38327;-75
2022/11/23 09:26:03;;;;;;;21.63;4.27;;;8.50;99.90;;;;;;4875921;29;37342;-76
2022/11/23 09:28:32;;;;;;;22.60;3.70;;;8.50;99.90;;;;;;4873806;29;37870;-77
2022/11/23 09:31:03;;;;;;;15.40;3.17;;;8.50;99.90;;;;;;4875233;29;38228;-75
2022/11/23 09:33:29;;;;;;;14.53;3.97;;;8.50;99.90;;;;;;4885841;29;37814;-77
2022/11/23 09:36:00;;;;;;;21.50;3.27;;;8.50;99.90;;;;;;4874769;29;37606;-77
2022/11/23 09:38:26;;;;;;;18.90;3.93;;;8.50;99.90;;;;;;4872922;29;38870;-77
2022/11/23 09:41:21;;;;;;;22.60;3.43;;;8.50;99.90;;;;;;4873818;29;36870;-77
2022/11/23 09:44:03;;;;;;;21.33;4.23;;;8.40;99.90;;;;;;4866263;29;48753;-79
2022/11/23 09:46:40;;;;;;;14.63;2.78;;;8.40;99.90;;;;;;4869820;29;48580;-78
2022/11/23 09:49:19;;;;;;;16.80;3.43;;;8.40;99.90;;;;;;4873297;29;37921;-78
2022/11/23 09:51:46;;;;;;;18.53;4.50;;;8.50;99.90;;;;;;4884966;29;37199;-75
2022/11/23 09:54:34;;;;;;;19.30;4.30;;;8.60;99.90;;;;;;4867922;29;38800;-75
2022/11/23 09:57:02;;;;;;;23.43;4.43;;;8.50;99.90;;;;;;4876875;29;39253;-77
2022/11/23 09:59:44;;;;;;;23.83;4.23;;;8.50;99.90;;;;;;4875447;29;47340;-77
2022/11/23 10:02:20;;;;;;;19.43;4.33;;;8.50;99.90;;;;;;4871473;29;37426;-77
2022/11/23 10:04:47;;;;;;;17.03;4.33;;;8.50;99.90;;;;;;4893734;29;37528;-76
2022/11/23 10:07:16;;;;;;;17.30;4.00;;;8.50;99.90;;;;;;4895968;29;40001;-76
2022/11/23 10:10:00;;;;;;;20.47;4.93;;;8.40;99.90;;;;;;4888835;29;36747;-78
2022/11/23 10:12:38;;;;;;;16.33;4.30;;;8.40;99.90;;;;;;4888271;29;36803;-77
2022/11/23 10:15:13;;;;;;;14.80;3.67;;;8.30;99.90;;;;;;4893660;29;39632;-77
2022/11/23 10:18:03;;;;;;;18.50;4.40;;;8.20;99.90;;;;;;4893417;29;39974;-78
2022/11/23 10:20:51;;;;;;;14.77;4.07;;;8.20;99.90;;;;;;4891383;29;48982;-77
2022/11/23 10:23:45;;;;;;;19.20;4.00;;;8.20;99.90;;;;;;4893846;29;36920;-77
2022/11/23 10:26:17;;;;;;;22.77;5.00;;;8.20;99.90;;;;;;4893872;29;39199;-77
2022/11/23 10:28:46;;;;;;;13.75;3.88;;;8.30;99.90;;;;;;4877608;29;37147;-75
2022/11/23 10:31:15;;;;;;;15.07;4.20;;;8.30;99.90;;;;;;4895858;29;38017;-78
2022/11/23 10:33:51;;;;;;;18.90;4.17;;;8.30;99.90;;;;;;4899668;29;36335;-77
2022/11/23 10:36:17;;;;;;;18.87;3.90;;;8.30;99.90;;;;;;4889821;29;37713;-77
2022/11/23 10:38:48;;;;;;;17.87;4.90;;;8.40;99.90;;;;;;4878779;29;37080;-77
2022/11/23 10:41:15;;;;;;;21.23;4.73;;;8.40;99.90;;;;;;4895624;29;37800;-77
2022/11/23 10:43:47;;;;;;;21.60;4.63;;;8.50;99.90;;;;;;4894684;29;37884;-78
2022/11/23 10:46:26;;;;;;;20.57;5.13;;;8.50;99.90;;;;;;4890784;29;38960;-76
2022/11/23 10:48:53;;;;;;;21.30;5.60;;;8.60;99.90;;;;;;4893941;29;38334;-76
2022/11/23 10:51:19;;;;;;;23.87;5.37;;;8.60;99.90;;;;;;4893668;29;38164;-78
2022/11/23 10:53:57;;;;;;;14.80;4.97;;;8.60;99.90;;;;;;4891358;29;35912;-78
2022/11/23 10:56:23;;;;;;;14.83;4.77;;;8.60;99.90;;;;;;4880832;29;38944;-78
2022/11/23 10:58:50;;;;;;;19.27;5.47;;;8.60;99.90;;;;;;4897880;29;38763;-77
2022/11/23 11:01:23;;;;;;;20.07;4.03;;;8.60;99.90;;;;;;4888677;29;38377;-78
2022/11/23 11:03:53;;;;;;;21.77;4.67;;;8.60;99.90;;;;;;4884553;29;37284;-76
2022/11/23 11:06:28;;;;;;;21.33;4.63;;;8.70;99.90;;;;;;4892608;29;38786;-76
2022/11/23 11:08:56;;;;;;;22.93;4.60;;;8.70;99.90;;;;;;4888266;29;39357;-76
2022/11/23 11:11:35;;;;;;;23.27;4.23;;;8.70;99.90;;;;;;4888441;29;37854;-77
2022/11/23 11:14:07;;;;;;;13.43;3.70;;;8.70;99.90;;;;;;4895601;29;37065;-77
2022/11/23 11:16:36;;;;;;;20.92;3.83;;;8.70;99.90;;;;;;4893650;29;48365;-76
2022/11/23 11:19:41;;;;;;;13.73;3.43;;;8.80;99.90;;;;;;4892386;29;39418;-74
2022/11/23 11:22:28;;;;;;;14.10;3.47;;;8.80;99.90;;;;;;4890047;29;48804;-77
2022/11/23 11:24:54;;;;;;;12.50;3.07;;;8.90;99.90;;;;;;4885424;29;36075;-76
2022/11/23 11:27:23;;;;;;;14.23;3.40;;;9.00;99.90;;;;;;4894986;29;39565;-76
2022/11/23 11:30:06;;;;;;;14.87;3.23;;;9.00;99.90;;;;;;4894251;29;38828;-76
2022/11/23 11:33:07;;;;;;;11.87;3.57;;;9.10;99.90;;;;;;4865489;29;46818;-75
2022/11/23 11:35:42;;;;;;;16.77;3.00;;;9.10;99.90;;;;;;4873387;29;48717;-77
2022/11/23 11:38:17;;;;;;;12.60;3.37;;;9.10;99.90;;;;;;4878225;29;39251;-76
2022/11/23 11:40:48;;;;;;;18.07;3.53;;;9.20;99.90;;;;;;4888684;29;38401;-76
2022/11/23 11:43:17;;;;;;;11.33;2.97;;;9.30;99.90;;;;;;4893764;29;37927;-77
2022/11/23 11:45:45;;;;;;;16.93;3.23;;;9.40;99.90;;;;;;4871301;29;36056;-75
2022/11/23 11:48:21;;;;;;;15.97;2.90;;;9.40;99.90;;;;;;4894593;29;38329;-76
2022/11/23 11:50:55;;;;;;;11.67;2.97;;;9.30;99.90;;;;;;4894430;29;39617;-76
2022/11/23 11:53:47;;;;;;;10.97;3.20;;;9.40;99.90;;;;;;4891574;29;38174;-77
2022/11/23 11:56:40;;;;;;;16.97;4.00;;;9.40;99.90;;;;;;4862842;29;37858;-75
2022/11/23 11:59:13;;;;;;;11.63;3.05;;;9.40;99.90;;;;;;4877430;29;38367;-75
2022/11/23 12:01:57;;;;;;;12.87;2.30;;;9.40;99.90;;;;;;4885424;29;39419;-76
2022/11/23 12:04:42;;;;;;;9.37;2.50;;;9.50;99.90;;;;;;4893257;29;38793;-74
2022/11/23 12:07:15;;;;;;;8.93;2.63;;;9.50;99.90;;;;;;4889333;29;37089;-77
2022/11/23 12:09:45;;;;;;;9.25;2.30;;;9.60;99.90;;;;;;4889081;29;39544;-78
2022/11/23 12:12:15;;;;;;;10.50;2.23;;;9.70;99.90;;;;;;4883568;29;37403;-77
2022/11/23 12:14:42;;;;;;;7.80;2.03;;;9.70;99.90;;;;;;4886689;29;38176;-75
2022/11/23 12:17:42;;;;;;;6.00;1.77;;;9.70;99.90;;;;;;4887481;29;36924;-76
2022/11/23 12:20:23;;;;;;;11.93;2.50;;;9.80;99.90;;;;;;4887229;29;37806;-76
2022/11/23 12:23:10;;;;;;;11.40;2.20;;;9.80;99.90;;;;;;4890668;29;38097;-76
2022/11/23 12:25:42;;;;;;;12.90;2.37;;;9.80;99.90;;;;;;4879210;29;49275;-75
2022/11/23 12:28:21;;;;;;;8.75;1.85;;;9.80;99.90;;;;;;4886988;29;35263;-76
2022/11/23 12:31:11;;;;;;;9.67;2.57;;;9.70;99.90;;;;;;4881878;29;39321;-76
2022/11/23 12:34:11;;;;;;;12.53;2.00;;;9.70;99.90;;;;;;4867141;29;47247;-77
2022/11/23 12:36:44;;;;;;;13.30;2.07;;;9.70;99.90;;;;;;4887656;29;48937;-74
2022/11/23 12:39:44;;;;;;;15.93;1.80;;;9.70;99.90;;;;;;4880536;29;36872;-76
2022/11/23 12:42:22;;;;;;;16.70;2.40;;;9.60;99.90;;;;;;4881651;29;39039;-77
2022/11/23 12:45:17;;;;;;;7.30;1.60;;;9.30;99.90;;;;;;4879308;29;38542;-75
2022/11/23 12:47:55;;;;;;;11.33;2.37;;;9.10;99.90;;;;;;4883822;29;48562;-76
2022/11/23 12:50:34;;;;;;;9.33;1.67;;;9.00;99.90;;;;;;4881929;29;37287;-77
2022/11/23 12:53:15;;;;;;;11.53;3.07;;;8.90;99.90;;;;;;4883389;29;39586;-77
2022/11/23 12:56:27;;;;;;;12.97;2.10;;;8.80;99.90;;;;;;4884709;29;48092;-76
2022/11/23 12:58:55;;;;;;;10.10;2.40;;;8.80;99.90;;;;;;4878394;29;47082;-76